Meyersville, Texas
Current Conditions -  °F | °C
As of 7:51 AM on Wednesday 26 Nov 2014 (Local Time) from KVCT Reporting Station
Clear Clear  
Wind Chill: 52°   Ceiling: Unl
Heat Index: 52°   Visibility: 10mi
Dew Point: 37°   Wind: 6mph
Humidity: 57%   Direction: 230°SW
Pressure: 30.26"   Gusts: NA
Location:  28.93°N, 97.31°W
Report Text: KVCT 261351Z 23005KT 10SM CLR 11/03 A3026 RMK AO2 SLP247 T01110028
Loading
Personal Weather Stations






























Interactive Weather Map New forecast layout! Learn more

10-Day Weather Forecast

Advertisements
Track Severe Weather on mobile